sensor_id;sensor_type;location;lat;lon;timestamp;P1;durP1;ratioP1;P2;durP2;ratioP2
43142;SDS011;28750;59.842;17.584;2022-08-19T00:01:54;69.03;;;25.05;;
43142;SDS011;28750;59.842;17.584;2022-08-19T00:04:24;71.45;;;24.92;;
43142;SDS011;28750;59.842;17.584;2022-08-19T00:06:54;54.70;;;27.48;;
43142;SDS011;28750;59.842;17.584;2022-08-19T00:09:22;56.85;;;23.77;;
43142;SDS011;28750;59.842;17.584;2022-08-19T00:11:50;86.97;;;26.95;;
43142;SDS011;28750;59.842;17.584;2022-08-19T00:14:17;35.38;;;21.73;;
43142;SDS011;28750;59.842;17.584;2022-08-19T00:16:46;55.15;;;23.63;;
43142;SDS011;28750;59.842;17.584;2022-08-19T00:19:14;59.63;;;24.90;;
43142;SDS011;28750;59.842;17.584;2022-08-19T00:21:42;47.35;;;23.05;;
43142;SDS011;28750;59.842;17.584;2022-08-19T00:24:10;54.17;;;28.27;;
43142;SDS011;28750;59.842;17.584;2022-08-19T00:26:39;42.53;;;24.02;;
43142;SDS011;28750;59.842;17.584;2022-08-19T00:29:08;48.45;;;26.83;;
43142;SDS011;28750;59.842;17.584;2022-08-19T00:31:37;51.83;;;27.60;;
43142;SDS011;28750;59.842;17.584;2022-08-19T00:34:04;59.45;;;25.15;;
43142;SDS011;28750;59.842;17.584;2022-08-19T00:36:31;74.35;;;29.52;;
43142;SDS011;28750;59.842;17.584;2022-08-19T00:38:58;50.00;;;26.95;;
43142;SDS011;28750;59.842;17.584;2022-08-19T00:41:26;48.38;;;26.42;;
43142;SDS011;28750;59.842;17.584;2022-08-19T00:44:28;56.60;;;25.25;;
43142;SDS011;28750;59.842;17.584;2022-08-19T00:46:49;51.55;;;28.40;;
43142;SDS011;28750;59.842;17.584;2022-08-19T00:49:41;50.95;;;28.02;;
43142;SDS011;28750;59.842;17.584;2022-08-19T00:55:21;51.35;;;26.92;;
43142;SDS011;28750;59.842;17.584;2022-08-19T00:58:00;51.92;;;24.35;;
43142;SDS011;28750;59.842;17.584;2022-08-19T01:00:32;49.10;;;24.73;;
43142;SDS011;28750;59.842;17.584;2022-08-19T01:03:01;44.78;;;26.75;;
43142;SDS011;28750;59.842;17.584;2022-08-19T01:05:33;46.95;;;26.27;;
43142;SDS011;28750;59.842;17.584;2022-08-19T01:08:03;39.63;;;25.27;;
43142;SDS011;28750;59.842;17.584;2022-08-19T01:10:33;52.35;;;29.05;;
43142;SDS011;28750;59.842;17.584;2022-08-19T01:13:04;52.22;;;29.38;;
43142;SDS011;28750;59.842;17.584;2022-08-19T01:15:38;54.05;;;26.45;;
43142;SDS011;28750;59.842;17.584;2022-08-19T01:18:10;40.58;;;25.33;;
43142;SDS011;28750;59.842;17.584;2022-08-19T01:20:39;37.72;;;24.63;;
43142;SDS011;28750;59.842;17.584;2022-08-19T01:23:08;45.60;;;28.98;;
43142;SDS011;28750;59.842;17.584;2022-08-19T01:25:39;50.00;;;28.45;;
43142;SDS011;28750;59.842;17.584;2022-08-19T01:28:14;36.70;;;23.67;;
43142;SDS011;28750;59.842;17.584;2022-08-19T01:30:46;42.30;;;23.67;;
43142;SDS011;28750;59.842;17.584;2022-08-19T01:33:14;38.92;;;24.25;;
43142;SDS011;28750;59.842;17.584;2022-08-19T01:35:42;55.88;;;29.60;;
43142;SDS011;28750;59.842;17.584;2022-08-19T01:38:18;48.72;;;27.48;;
43142;SDS011;28750;59.842;17.584;2022-08-19T01:40:47;39.30;;;26.15;;
43142;SDS011;28750;59.842;17.584;2022-08-19T01:43:14;31.38;;;23.23;;
43142;SDS011;28750;59.842;17.584;2022-08-19T01:45:44;41.45;;;25.40;;
43142;SDS011;28750;59.842;17.584;2022-08-19T01:48:12;37.20;;;24.70;;
43142;SDS011;28750;59.842;17.584;2022-08-19T01:50:40;33.17;;;22.23;;
43142;SDS011;28750;59.842;17.584;2022-08-19T01:53:09;39.78;;;26.98;;
43142;SDS011;28750;59.842;17.584;2022-08-19T01:55:38;37.80;;;26.02;;
43142;SDS011;28750;59.842;17.584;2022-08-19T01:58:08;37.38;;;24.40;;
43142;SDS011;28750;59.842;17.584;2022-08-19T02:00:49;36.13;;;26.08;;
43142;SDS011;28750;59.842;17.584;2022-08-19T02:03:16;38.97;;;25.25;;
43142;SDS011;28750;59.842;17.584;2022-08-19T02:05:44;37.25;;;24.60;;
43142;SDS011;28750;59.842;17.584;2022-08-19T02:08:11;48.20;;;28.85;;
43142;SDS011;28750;59.842;17.584;2022-08-19T02:10:40;30.55;;;22.60;;
43142;SDS011;28750;59.842;17.584;2022-08-19T02:13:09;38.60;;;27.15;;
43142;SDS011;28750;59.842;17.584;2022-08-19T02:15:37;33.60;;;25.10;;
43142;SDS011;28750;59.842;17.584;2022-08-19T02:18:04;38.13;;;27.98;;
43142;SDS011;28750;59.842;17.584;2022-08-19T02:20:32;37.42;;;25.20;;
43142;SDS011;28750;59.842;17.584;2022-08-19T02:23:02;37.88;;;27.30;;
43142;SDS011;28750;59.842;17.584;2022-08-19T02:25:29;32.33;;;24.45;;
43142;SDS011;28750;59.842;17.584;2022-08-19T02:27:56;37.47;;;26.15;;
43142;SDS011;28750;59.842;17.584;2022-08-19T02:30:23;32.25;;;23.98;;
43142;SDS011;28750;59.842;17.584;2022-08-19T02:32:51;37.17;;;22.90;;
43142;SDS011;28750;59.842;17.584;2022-08-19T02:35:18;36.08;;;25.92;;
43142;SDS011;28750;59.842;17.584;2022-08-19T02:37:45;35.28;;;25.30;;
43142;SDS011;28750;59.842;17.584;2022-08-19T02:40:31;36.60;;;24.08;;
43142;SDS011;28750;59.842;17.584;2022-08-19T02:42:59;40.13;;;28.55;;
43142;SDS011;28750;59.842;17.584;2022-08-19T02:45:31;41.17;;;27.98;;
43142;SDS011;28750;59.842;17.584;2022-08-19T02:48:02;44.63;;;28.27;;
43142;SDS011;28750;59.842;17.584;2022-08-19T02:50:30;44.58;;;30.48;;
43142;SDS011;28750;59.842;17.584;2022-08-19T02:52:58;35.05;;;25.63;;
43142;SDS011;28750;59.842;17.584;2022-08-19T02:55:25;46.95;;;29.88;;
43142;SDS011;28750;59.842;17.584;2022-08-19T02:57:52;40.45;;;27.95;;
43142;SDS011;28750;59.842;17.584;2022-08-19T03:00:19;39.55;;;27.23;;
43142;SDS011;28750;59.842;17.584;2022-08-19T03:02:46;35.10;;;26.38;;
43142;SDS011;28750;59.842;17.584;2022-08-19T03:05:13;37.25;;;27.33;;
43142;SDS011;28750;59.842;17.584;2022-08-19T03:07:40;32.90;;;23.50;;
43142;SDS011;28750;59.842;17.584;2022-08-19T03:10:07;39.83;;;28.48;;
43142;SDS011;28750;59.842;17.584;2022-08-19T03:12:35;39.15;;;26.95;;
43142;SDS011;28750;59.842;17.584;2022-08-19T03:15:05;40.45;;;26.70;;
43142;SDS011;28750;59.842;17.584;2022-08-19T03:17:34;39.58;;;28.45;;
43142;SDS011;28750;59.842;17.584;2022-08-19T03:20:01;42.35;;;29.92;;
43142;SDS011;28750;59.842;17.584;2022-08-19T03:22:29;34.25;;;24.80;;
43142;SDS011;28750;59.842;17.584;2022-08-19T03:24:56;42.75;;;30.77;;
43142;SDS011;28750;59.842;17.584;2022-08-19T03:27:24;34.90;;;26.80;;
43142;SDS011;28750;59.842;17.584;2022-08-19T03:29:51;31.52;;;24.27;;
43142;SDS011;28750;59.842;17.584;2022-08-19T03:32:18;33.88;;;24.73;;
43142;SDS011;28750;59.842;17.584;2022-08-19T03:34:45;43.58;;;28.15;;
43142;SDS011;28750;59.842;17.584;2022-08-19T03:37:12;32.53;;;22.58;;
43142;SDS011;28750;59.842;17.584;2022-08-19T03:39:39;36.97;;;26.17;;
43142;SDS011;28750;59.842;17.584;2022-08-19T03:42:08;33.42;;;25.40;;
43142;SDS011;28750;59.842;17.584;2022-08-19T03:44:35;37.75;;;25.73;;
43142;SDS011;28750;59.842;17.584;2022-08-19T03:47:03;37.50;;;27.45;;
43142;SDS011;28750;59.842;17.584;2022-08-19T03:49:31;29.30;;;23.20;;
43142;SDS011;28750;59.842;17.584;2022-08-19T03:52:00;30.75;;;24.15;;
43142;SDS011;28750;59.842;17.584;2022-08-19T03:54:30;38.75;;;27.10;;
43142;SDS011;28750;59.842;17.584;2022-08-19T03:56:57;37.50;;;26.83;;
43142;SDS011;28750;59.842;17.584;2022-08-19T03:59:26;38.42;;;24.90;;
43142;SDS011;28750;59.842;17.584;2022-08-19T04:01:56;32.22;;;25.80;;
43142;SDS011;28750;59.842;17.584;2022-08-19T04:04:25;29.05;;;22.83;;
43142;SDS011;28750;59.842;17.584;2022-08-19T04:06:52;33.58;;;26.80;;
43142;SDS011;28750;59.842;17.584;2022-08-19T04:09:19;42.50;;;30.80;;
43142;SDS011;28750;59.842;17.584;2022-08-19T04:11:50;28.73;;;22.20;;
43142;SDS011;28750;59.842;17.584;2022-08-19T04:14:20;33.80;;;26.70;;
43142;SDS011;28750;59.842;17.584;2022-08-19T04:16:49;39.22;;;26.90;;
43142;SDS011;28750;59.842;17.584;2022-08-19T04:19:18;34.33;;;27.35;;
43142;SDS011;28750;59.842;17.584;2022-08-19T04:21:46;44.72;;;30.40;;
43142;SDS011;28750;59.842;17.584;2022-08-19T04:24:15;40.70;;;26.42;;
43142;SDS011;28750;59.842;17.584;2022-08-19T04:26:43;35.65;;;24.98;;
43142;SDS011;28750;59.842;17.584;2022-08-19T04:29:12;36.50;;;26.02;;
43142;SDS011;28750;59.842;17.584;2022-08-19T04:31:43;42.15;;;29.52;;
43142;SDS011;28750;59.842;17.584;2022-08-19T04:34:11;34.55;;;25.95;;
43142;SDS011;28750;59.842;17.584;2022-08-19T04:36:41;45.30;;;32.38;;
43142;SDS011;28750;59.842;17.584;2022-08-19T04:39:16;44.92;;;32.30;;
43142;SDS011;28750;59.842;17.584;2022-08-19T04:41:45;39.80;;;29.38;;
43142;SDS011;28750;59.842;17.584;2022-08-19T04:44:39;40.72;;;30.27;;
43142;SDS011;28750;59.842;17.584;2022-08-19T04:47:06;35.75;;;26.25;;
43142;SDS011;28750;59.842;17.584;2022-08-19T04:49:33;33.65;;;26.38;;
43142;SDS011;28750;59.842;17.584;2022-08-19T04:52:01;38.40;;;29.02;;
43142;SDS011;28750;59.842;17.584;2022-08-19T04:54:28;34.28;;;26.20;;
43142;SDS011;28750;59.842;17.584;2022-08-19T04:56:55;39.38;;;26.70;;
43142;SDS011;28750;59.842;17.584;2022-08-19T04:59:22;46.67;;;32.20;;
43142;SDS011;28750;59.842;17.584;2022-08-19T05:01:49;39.15;;;28.52;;
43142;SDS011;28750;59.842;17.584;2022-08-19T05:04:17;43.00;;;28.70;;
43142;SDS011;28750;59.842;17.584;2022-08-19T05:06:47;42.45;;;30.48;;
43142;SDS011;28750;59.842;17.584;2022-08-19T05:09:14;41.38;;;31.00;;
43142;SDS011;28750;59.842;17.584;2022-08-19T05:11:44;45.28;;;31.05;;
43142;SDS011;28750;59.842;17.584;2022-08-19T05:14:11;38.35;;;27.80;;
43142;SDS011;28750;59.842;17.584;2022-08-19T05:16:39;41.72;;;28.73;;
43142;SDS011;28750;59.842;17.584;2022-08-19T05:19:06;48.58;;;33.33;;
43142;SDS011;28750;59.842;17.584;2022-08-19T05:21:51;35.40;;;27.30;;
43142;SDS011;28750;59.842;17.584;2022-08-19T05:24:35;46.25;;;34.15;;
43142;SDS011;28750;59.842;17.584;2022-08-19T05:27:02;38.35;;;28.55;;
43142;SDS011;28750;59.842;17.584;2022-08-19T05:29:31;38.30;;;27.58;;
43142;SDS011;28750;59.842;17.584;2022-08-19T05:31:59;38.45;;;28.02;;
43142;SDS011;28750;59.842;17.584;2022-08-19T05:34:27;37.63;;;27.17;;
43142;SDS011;28750;59.842;17.584;2022-08-19T05:36:55;47.58;;;32.97;;
43142;SDS011;28750;59.842;17.584;2022-08-19T05:39:25;43.75;;;32.47;;
43142;SDS011;28750;59.842;17.584;2022-08-19T05:41:55;48.15;;;35.58;;
43142;SDS011;28750;59.842;17.584;2022-08-19T05:44:25;49.00;;;34.90;;
43142;SDS011;28750;59.842;17.584;2022-08-19T05:46:55;44.08;;;32.00;;
43142;SDS011;28750;59.842;17.584;2022-08-19T05:49:23;47.53;;;32.55;;
43142;SDS011;28750;59.842;17.584;2022-08-19T05:51:50;37.95;;;29.88;;
43142;SDS011;28750;59.842;17.584;2022-08-19T05:54:18;37.75;;;29.35;;
43142;SDS011;28750;59.842;17.584;2022-08-19T05:56:45;48.28;;;34.55;;
43142;SDS011;28750;59.842;17.584;2022-08-19T05:59:14;38.17;;;28.92;;
43142;SDS011;28750;59.842;17.584;2022-08-19T06:01:43;40.60;;;29.40;;
43142;SDS011;28750;59.842;17.584;2022-08-19T06:04:16;42.83;;;31.95;;
43142;SDS011;28750;59.842;17.584;2022-08-19T06:06:48;35.83;;;28.25;;
43142;SDS011;28750;59.842;17.584;2022-08-19T06:09:17;41.83;;;30.00;;
43142;SDS011;28750;59.842;17.584;2022-08-19T06:11:46;35.80;;;28.23;;
43142;SDS011;28750;59.842;17.584;2022-08-19T06:14:19;40.42;;;28.40;;
43142;SDS011;28750;59.842;17.584;2022-08-19T06:16:50;45.92;;;31.75;;
43142;SDS011;28750;59.842;17.584;2022-08-19T06:19:19;45.60;;;32.60;;
43142;SDS011;28750;59.842;17.584;2022-08-19T06:21:50;37.78;;;28.20;;
43142;SDS011;28750;59.842;17.584;2022-08-19T06:24:19;36.53;;;29.83;;
43142;SDS011;28750;59.842;17.584;2022-08-19T06:26:49;38.30;;;29.70;;
43142;SDS011;28750;59.842;17.584;2022-08-19T06:29:18;37.10;;;28.13;;
43142;SDS011;28750;59.842;17.584;2022-08-19T06:31:49;44.83;;;31.00;;
43142;SDS011;28750;59.842;17.584;2022-08-19T06:34:18;39.55;;;29.90;;
43142;SDS011;28750;59.842;17.584;2022-08-19T06:36:49;36.13;;;27.73;;
43142;SDS011;28750;59.842;17.584;2022-08-19T06:39:21;40.10;;;28.40;;
43142;SDS011;28750;59.842;17.584;2022-08-19T06:41:54;40.92;;;31.45;;
43142;SDS011;28750;59.842;17.584;2022-08-19T06:44:24;42.25;;;31.55;;
43142;SDS011;28750;59.842;17.584;2022-08-19T06:46:54;35.73;;;27.90;;
43142;SDS011;28750;59.842;17.584;2022-08-19T06:49:22;37.78;;;28.45;;
43142;SDS011;28750;59.842;17.584;2022-08-19T06:51:50;41.65;;;30.38;;
43142;SDS011;28750;59.842;17.584;2022-08-19T06:54:18;41.75;;;30.17;;
43142;SDS011;28750;59.842;17.584;2022-08-19T06:56:45;45.05;;;33.63;;
43142;SDS011;28750;59.842;17.584;2022-08-19T06:59:14;37.80;;;27.08;;
43142;SDS011;28750;59.842;17.584;2022-08-19T07:01:45;35.08;;;27.63;;
43142;SDS011;28750;59.842;17.584;2022-08-19T07:04:16;39.00;;;27.13;;
43142;SDS011;28750;59.842;17.584;2022-08-19T07:06:48;37.70;;;29.42;;
43142;SDS011;28750;59.842;17.584;2022-08-19T07:09:17;35.00;;;29.02;;
43142;SDS011;28750;59.842;17.584;2022-08-19T07:11:45;34.35;;;26.02;;
43142;SDS011;28750;59.842;17.584;2022-08-19T07:14:14;35.75;;;25.85;;
43142;SDS011;28750;59.842;17.584;2022-08-19T07:16:44;37.78;;;30.80;;
43142;SDS011;28750;59.842;17.584;2022-08-19T07:19:12;39.55;;;29.15;;
43142;SDS011;28750;59.842;17.584;2022-08-19T07:21:40;33.13;;;26.50;;
43142;SDS011;28750;59.842;17.584;2022-08-19T07:24:07;35.08;;;26.25;;
43142;SDS011;28750;59.842;17.584;2022-08-19T07:26:40;37.90;;;29.13;;
43142;SDS011;28750;59.842;17.584;2022-08-19T07:29:09;37.35;;;28.98;;
43142;SDS011;28750;59.842;17.584;2022-08-19T07:31:37;37.53;;;29.40;;
43142;SDS011;28750;59.842;17.584;2022-08-19T07:34:05;37.08;;;28.10;;
43142;SDS011;28750;59.842;17.584;2022-08-19T07:36:36;30.48;;;24.40;;
43142;SDS011;28750;59.842;17.584;2022-08-19T07:39:10;33.13;;;25.65;;
43142;SDS011;28750;59.842;17.584;2022-08-19T07:41:42;32.90;;;26.10;;
43142;SDS011;28750;59.842;17.584;2022-08-19T07:44:09;31.08;;;26.83;;
43142;SDS011;28750;59.842;17.584;2022-08-19T07:46:38;35.00;;;27.90;;
43142;SDS011;28750;59.842;17.584;2022-08-19T07:49:08;34.67;;;26.50;;
43142;SDS011;28750;59.842;17.584;2022-08-19T07:51:48;32.58;;;26.75;;
43142;SDS011;28750;59.842;17.584;2022-08-19T07:54:17;30.70;;;24.65;;
43142;SDS011;28750;59.842;17.584;2022-08-19T07:56:45;29.90;;;23.65;;
43142;SDS011;28750;59.842;17.584;2022-08-19T07:59:13;33.28;;;26.10;;
43142;SDS011;28750;59.842;17.584;2022-08-19T08:01:40;35.47;;;29.35;;
43142;SDS011;28750;59.842;17.584;2022-08-19T08:04:07;34.13;;;27.13;;
43142;SDS011;28750;59.842;17.584;2022-08-19T08:06:52;30.42;;;26.95;;
43142;SDS011;28750;59.842;17.584;2022-08-19T08:09:37;29.23;;;23.50;;
43142;SDS011;28750;59.842;17.584;2022-08-19T08:14:41;30.33;;;25.92;;
43142;SDS011;28750;59.842;17.584;2022-08-19T08:17:14;31.35;;;24.27;;
43142;SDS011;28750;59.842;17.584;2022-08-19T08:19:43;29.75;;;24.85;;
43142;SDS011;28750;59.842;17.584;2022-08-19T08:22:11;30.88;;;25.08;;
43142;SDS011;28750;59.842;17.584;2022-08-19T08:25:11;26.60;;;23.17;;
43142;SDS011;28750;59.842;17.584;2022-08-19T08:27:43;25.27;;;22.48;;
43142;SDS011;28750;59.842;17.584;2022-08-19T08:30:12;27.30;;;24.42;;
43142;SDS011;28750;59.842;17.584;2022-08-19T08:32:42;28.95;;;22.88;;
43142;SDS011;28750;59.842;17.584;2022-08-19T08:35:11;27.10;;;22.42;;
43142;SDS011;28750;59.842;17.584;2022-08-19T08:40:08;31.23;;;24.42;;
43142;SDS011;28750;59.842;17.584;2022-08-19T08:46:09;23.17;;;20.63;;
43142;SDS011;28750;59.842;17.584;2022-08-19T08:48:40;23.92;;;20.45;;
43142;SDS011;28750;59.842;17.584;2022-08-19T08:51:25;21.58;;;19.08;;
43142;SDS011;28750;59.842;17.584;2022-08-19T08:53:56;24.23;;;20.30;;
43142;SDS011;28750;59.842;17.584;2022-08-19T08:56:23;25.08;;;21.33;;
43142;SDS011;28750;59.842;17.584;2022-08-19T08:59:03;24.63;;;21.98;;
43142;SDS011;28750;59.842;17.584;2022-08-19T09:01:38;22.92;;;20.52;;
43142;SDS011;28750;59.842;17.584;2022-08-19T09:04:05;25.63;;;22.27;;
43142;SDS011;28750;59.842;17.584;2022-08-19T09:06:38;21.60;;;19.35;;
43142;SDS011;28750;59.842;17.584;2022-08-19T09:09:28;28.92;;;20.27;;
43142;SDS011;28750;59.842;17.584;2022-08-19T09:17:13;27.90;;;19.10;;
43142;SDS011;28750;59.842;17.584;2022-08-19T09:20:03;23.40;;;20.25;;
43142;SDS011;28750;59.842;17.584;2022-08-19T09:22:34;24.67;;;19.35;;
43142;SDS011;28750;59.842;17.584;2022-08-19T09:25:02;23.73;;;19.27;;
43142;SDS011;28750;59.842;17.584;2022-08-19T09:27:30;24.27;;;20.33;;
43142;SDS011;28750;59.842;17.584;2022-08-19T09:29:57;26.35;;;19.83;;
43142;SDS011;28750;59.842;17.584;2022-08-19T09:32:25;21.20;;;18.67;;
43142;SDS011;28750;59.842;17.584;2022-08-19T09:34:53;21.55;;;17.75;;
43142;SDS011;28750;59.842;17.584;2022-08-19T09:37:23;22.27;;;18.40;;
43142;SDS011;28750;59.842;17.584;2022-08-19T09:39:50;20.40;;;18.00;;
43142;SDS011;28750;59.842;17.584;2022-08-19T09:42:17;20.63;;;17.52;;
43142;SDS011;28750;59.842;17.584;2022-08-19T09:44:45;18.00;;;16.10;;
43142;SDS011;28750;59.842;17.584;2022-08-19T09:47:12;18.92;;;15.82;;
43142;SDS011;28750;59.842;17.584;2022-08-19T09:49:40;20.00;;;15.52;;
43142;SDS011;28750;59.842;17.584;2022-08-19T09:52:10;18.02;;;14.25;;
43142;SDS011;28750;59.842;17.584;2022-08-19T09:54:38;17.65;;;14.80;;
43142;SDS011;28750;59.842;17.584;2022-08-19T09:57:05;18.35;;;15.48;;
43142;SDS011;28750;59.842;17.584;2022-08-19T09:59:33;16.33;;;14.45;;
43142;SDS011;28750;59.842;17.584;2022-08-19T10:02:00;19.98;;;15.20;;
43142;SDS011;28750;59.842;17.584;2022-08-19T10:04:28;19.65;;;15.38;;
43142;SDS011;28750;59.842;17.584;2022-08-19T10:07:09;18.17;;;14.13;;
43142;SDS011;28750;59.842;17.584;2022-08-19T10:09:36;19.42;;;14.73;;
43142;SDS011;28750;59.842;17.584;2022-08-19T10:12:06;15.85;;;13.35;;
43142;SDS011;28750;59.842;17.584;2022-08-19T10:14:33;16.50;;;14.00;;
43142;SDS011;28750;59.842;17.584;2022-08-19T10:17:01;16.15;;;13.45;;
43142;SDS011;28750;59.842;17.584;2022-08-19T10:19:29;17.08;;;13.02;;
43142;SDS011;28750;59.842;17.584;2022-08-19T10:22:02;19.63;;;12.48;;
43142;SDS011;28750;59.842;17.584;2022-08-19T10:24:30;16.15;;;13.02;;
43142;SDS011;28750;59.842;17.584;2022-08-19T10:26:58;14.95;;;13.05;;
43142;SDS011;28750;59.842;17.584;2022-08-19T10:29:29;17.98;;;12.85;;
43142;SDS011;28750;59.842;17.584;2022-08-19T10:31:56;17.40;;;13.02;;
43142;SDS011;28750;59.842;17.584;2022-08-19T10:34:25;14.10;;;12.63;;
43142;SDS011;28750;59.842;17.584;2022-08-19T10:36:52;14.27;;;12.77;;
43142;SDS011;28750;59.842;17.584;2022-08-19T10:39:19;15.15;;;12.50;;
43142;SDS011;28750;59.842;17.584;2022-08-19T10:41:46;13.23;;;11.85;;
43142;SDS011;28750;59.842;17.584;2022-08-19T10:44:13;13.88;;;12.45;;
43142;SDS011;28750;59.842;17.584;2022-08-19T10:46:42;13.63;;;11.50;;
43142;SDS011;28750;59.842;17.584;2022-08-19T10:51:39;14.32;;;10.65;;
43142;SDS011;28750;59.842;17.584;2022-08-19T10:54:24;12.05;;;9.88;;
43142;SDS011;28750;59.842;17.584;2022-08-19T10:57:12;14.68;;;10.65;;
43142;SDS011;28750;59.842;17.584;2022-08-19T10:59:39;13.05;;;11.10;;
43142;SDS011;28750;59.842;17.584;2022-08-19T11:02:07;12.30;;;9.13;;
43142;SDS011;28750;59.842;17.584;2022-08-19T11:04:37;13.27;;;9.75;;
43142;SDS011;28750;59.842;17.584;2022-08-19T11:07:05;11.02;;;9.55;;
43142;SDS011;28750;59.842;17.584;2022-08-19T11:09:37;13.60;;;9.65;;
43142;SDS011;28750;59.842;17.584;2022-08-19T11:12:07;11.82;;;8.88;;
43142;SDS011;28750;59.842;17.584;2022-08-19T11:14:35;13.55;;;8.88;;
43142;SDS011;28750;59.842;17.584;2022-08-19T11:17:03;12.10;;;8.43;;
43142;SDS011;28750;59.842;17.584;2022-08-19T11:19:32;12.97;;;9.57;;
43142;SDS011;28750;59.842;17.584;2022-08-19T11:21:59;14.00;;;8.75;;
43142;SDS011;28750;59.842;17.584;2022-08-19T11:24:28;11.18;;;8.55;;
43142;SDS011;28750;59.842;17.584;2022-08-19T11:27:00;13.70;;;8.13;;
43142;SDS011;28750;59.842;17.584;2022-08-19T11:29:34;11.52;;;8.27;;
43142;SDS011;28750;59.842;17.584;2022-08-19T11:32:06;8.65;;;7.53;;
43142;SDS011;28750;59.842;17.584;2022-08-19T11:34:35;11.60;;;8.27;;
43142;SDS011;28750;59.842;17.584;2022-08-19T11:37:02;10.10;;;7.57;;
43142;SDS011;28750;59.842;17.584;2022-08-19T11:39:31;13.88;;;7.80;;
43142;SDS011;28750;59.842;17.584;2022-08-19T11:42:00;11.40;;;7.10;;
43142;SDS011;28750;59.842;17.584;2022-08-19T11:44:48;11.90;;;7.38;;
43142;SDS011;28750;59.842;17.584;2022-08-19T11:47:15;10.75;;;6.65;;
43142;SDS011;28750;59.842;17.584;2022-08-19T11:49:42;9.98;;;7.22;;
43142;SDS011;28750;59.842;17.584;2022-08-19T11:52:09;7.63;;;6.68;;
43142;SDS011;28750;59.842;17.584;2022-08-19T11:54:37;9.90;;;6.95;;
43142;SDS011;28750;59.842;17.584;2022-08-19T11:57:04;11.27;;;6.80;;
43142;SDS011;28750;59.842;17.584;2022-08-19T11:59:31;11.07;;;6.78;;
43142;SDS011;28750;59.842;17.584;2022-08-19T12:01:58;8.05;;;6.30;;
43142;SDS011;28750;59.842;17.584;2022-08-19T12:04:25;9.65;;;6.65;;
43142;SDS011;28750;59.842;17.584;2022-08-19T12:06:52;13.07;;;6.72;;
43142;SDS011;28750;59.842;17.584;2022-08-19T12:09:19;13.90;;;7.30;;
43142;SDS011;28750;59.842;17.584;2022-08-19T12:11:47;11.05;;;7.00;;
43142;SDS011;28750;59.842;17.584;2022-08-19T12:14:14;12.07;;;7.30;;
43142;SDS011;28750;59.842;17.584;2022-08-19T12:16:43;11.73;;;7.15;;
43142;SDS011;28750;59.842;17.584;2022-08-19T12:19:11;10.73;;;6.93;;
43142;SDS011;28750;59.842;17.584;2022-08-19T12:21:39;14.88;;;6.65;;
43142;SDS011;28750;59.842;17.584;2022-08-19T12:24:06;8.45;;;6.88;;
43142;SDS011;28750;59.842;17.584;2022-08-19T12:26:33;12.35;;;7.13;;
43142;SDS011;28750;59.842;17.584;2022-08-19T12:29:01;13.60;;;7.07;;
43142;SDS011;28750;59.842;17.584;2022-08-19T12:31:29;11.63;;;7.25;;
43142;SDS011;28750;59.842;17.584;2022-08-19T12:33:56;10.65;;;6.80;;
43142;SDS011;28750;59.842;17.584;2022-08-19T12:36:24;6.78;;;6.00;;
43142;SDS011;28750;59.842;17.584;2022-08-19T12:38:51;9.95;;;6.85;;
43142;SDS011;28750;59.842;17.584;2022-08-19T12:41:19;12.38;;;7.03;;
43142;SDS011;28750;59.842;17.584;2022-08-19T12:43:47;9.10;;;7.00;;
43142;SDS011;28750;59.842;17.584;2022-08-19T12:46:15;10.68;;;6.45;;
43142;SDS011;28750;59.842;17.584;2022-08-19T12:48:42;7.45;;;5.90;;
43142;SDS011;28750;59.842;17.584;2022-08-19T12:51:11;7.22;;;6.25;;
43142;SDS011;28750;59.842;17.584;2022-08-19T12:53:41;11.13;;;6.75;;
43142;SDS011;28750;59.842;17.584;2022-08-19T12:56:09;10.95;;;7.03;;
43142;SDS011;28750;59.842;17.584;2022-08-19T12:58:39;10.15;;;7.72;;
43142;SDS011;28750;59.842;17.584;2022-08-19T13:01:08;8.35;;;6.18;;
43142;SDS011;28750;59.842;17.584;2022-08-19T13:03:37;7.28;;;6.57;;
43142;SDS011;28750;59.842;17.584;2022-08-19T13:06:05;12.80;;;6.85;;
43142;SDS011;28750;59.842;17.584;2022-08-19T13:08:33;8.18;;;6.55;;
43142;SDS011;28750;59.842;17.584;2022-08-19T13:11:10;10.60;;;6.50;;
43142;SDS011;28750;59.842;17.584;2022-08-19T13:13:40;15.15;;;7.68;;
43142;SDS011;28750;59.842;17.584;2022-08-19T13:16:09;12.13;;;6.82;;
43142;SDS011;28750;59.842;17.584;2022-08-19T13:18:38;9.40;;;7.00;;
43142;SDS011;28750;59.842;17.584;2022-08-19T13:21:07;6.97;;;6.28;;
43142;SDS011;28750;59.842;17.584;2022-08-19T13:23:36;9.38;;;7.15;;
43142;SDS011;28750;59.842;17.584;2022-08-19T13:26:04;10.38;;;7.20;;
43142;SDS011;28750;59.842;17.584;2022-08-19T13:31:19;10.90;;;5.88;;
43142;SDS011;28750;59.842;17.584;2022-08-19T13:34:05;9.90;;;6.55;;
43142;SDS011;28750;59.842;17.584;2022-08-19T13:36:33;10.20;;;6.60;;
43142;SDS011;28750;59.842;17.584;2022-08-19T13:39:01;10.13;;;6.32;;
43142;SDS011;28750;59.842;17.584;2022-08-19T13:41:28;9.10;;;6.13;;
43142;SDS011;28750;59.842;17.584;2022-08-19T13:43:55;10.40;;;5.78;;
43142;SDS011;28750;59.842;17.584;2022-08-19T13:46:23;9.52;;;5.82;;
43142;SDS011;28750;59.842;17.584;2022-08-19T13:48:54;8.07;;;5.60;;
43142;SDS011;28750;59.842;17.584;2022-08-19T13:51:21;7.60;;;5.97;;
43142;SDS011;28750;59.842;17.584;2022-08-19T13:53:49;7.20;;;5.85;;
43142;SDS011;28750;59.842;17.584;2022-08-19T13:56:16;7.28;;;6.55;;
43142;SDS011;28750;59.842;17.584;2022-08-19T13:58:45;8.43;;;6.43;;
43142;SDS011;28750;59.842;17.584;2022-08-19T14:01:12;13.23;;;5.82;;
43142;SDS011;28750;59.842;17.584;2022-08-19T14:03:46;9.45;;;5.72;;
43142;SDS011;28750;59.842;17.584;2022-08-19T14:06:13;11.73;;;6.35;;
43142;SDS011;28750;59.842;17.584;2022-08-19T14:08:41;6.68;;;5.68;;
43142;SDS011;28750;59.842;17.584;2022-08-19T14:11:09;9.50;;;5.70;;
43142;SDS011;28750;59.842;17.584;2022-08-19T14:13:36;13.20;;;6.35;;
43142;SDS011;28750;59.842;17.584;2022-08-19T14:16:07;10.75;;;6.15;;
43142;SDS011;28750;59.842;17.584;2022-08-19T14:18:39;8.30;;;5.72;;
43142;SDS011;28750;59.842;17.584;2022-08-19T14:21:06;11.02;;;5.97;;
43142;SDS011;28750;59.842;17.584;2022-08-19T14:23:34;7.82;;;6.03;;
43142;SDS011;28750;59.842;17.584;2022-08-19T14:26:06;9.02;;;5.63;;
43142;SDS011;28750;59.842;17.584;2022-08-19T14:28:36;9.05;;;6.22;;
43142;SDS011;28750;59.842;17.584;2022-08-19T14:31:06;6.05;;;4.88;;
43142;SDS011;28750;59.842;17.584;2022-08-19T14:33:41;9.27;;;5.65;;
43142;SDS011;28750;59.842;17.584;2022-08-19T14:36:08;10.23;;;5.93;;
43142;SDS011;28750;59.842;17.584;2022-08-19T14:38:35;8.82;;;5.63;;
43142;SDS011;28750;59.842;17.584;2022-08-19T14:41:21;8.25;;;5.53;;
43142;SDS011;28750;59.842;17.584;2022-08-19T14:43:51;6.35;;;5.43;;
43142;SDS011;28750;59.842;17.584;2022-08-19T14:46:20;6.95;;;5.05;;
43142;SDS011;28750;59.842;17.584;2022-08-19T14:48:50;8.43;;;5.25;;
43142;SDS011;28750;59.842;17.584;2022-08-19T14:51:17;6.55;;;5.28;;